sensor_id;sensor_type;location;lat;lon;timestamp;temperature;humidity
19254;DHT22;9761;50.926;5.330;2022-10-29T00:00:51;17.50;99.90
19254;DHT22;9761;50.926;5.330;2022-10-29T00:03:22;17.50;99.90
19254;DHT22;9761;50.926;5.330;2022-10-29T00:06:00;17.50;99.90
19254;DHT22;9761;50.926;5.330;2022-10-29T00:08:28;17.60;99.90
19254;DHT22;9761;50.926;5.330;2022-10-29T00:11:05;17.60;99.90
19254;DHT22;9761;50.926;5.330;2022-10-29T00:13:34;17.50;99.90
19254;DHT22;9761;50.926;5.330;2022-10-29T00:16:06;17.40;99.90
19254;DHT22;9761;50.926;5.330;2022-10-29T00:18:33;17.30;99.90
19254;DHT22;9761;50.926;5.330;2022-10-29T00:21:01;17.20;99.90
19254;DHT22;9761;50.926;5.330;2022-10-29T00:23:28;17.20;99.90
19254;DHT22;9761;50.926;5.330;2022-10-29T00:25:56;17.10;99.90
19254;DHT22;9761;50.926;5.330;2022-10-29T00:28:24;17.10;99.90
19254;DHT22;9761;50.926;5.330;2022-10-29T00:30:53;17.10;99.90
19254;DHT22;9761;50.926;5.330;2022-10-29T00:33:22;17.10;99.90
19254;DHT22;9761;50.926;5.330;2022-10-29T00:35:56;17.10;99.90
19254;DHT22;9761;50.926;5.330;2022-10-29T00:38:26;17.00;99.90
19254;DHT22;9761;50.926;5.330;2022-10-29T00:40:54;17.00;99.90
19254;DHT22;9761;50.926;5.330;2022-10-29T00:43:23;17.10;99.90
19254;DHT22;9761;50.926;5.330;2022-10-29T00:45:52;17.10;99.90
19254;DHT22;9761;50.926;5.330;2022-10-29T00:48:24;17.10;99.90
19254;DHT22;9761;50.926;5.330;2022-10-29T00:50:53;17.10;99.90
19254;DHT22;9761;50.926;5.330;2022-10-29T00:53:22;17.20;99.90
19254;DHT22;9761;50.926;5.330;2022-10-29T00:55:51;17.20;99.90
19254;DHT22;9761;50.926;5.330;2022-10-29T00:58:18;17.10;99.90
19254;DHT22;9761;50.926;5.330;2022-10-29T01:00:46;17.00;99.90
19254;DHT22;9761;50.926;5.330;2022-10-29T01:03:13;17.00;99.90
19254;DHT22;9761;50.926;5.330;2022-10-29T01:05:44;16.90;99.90
19254;DHT22;9761;50.926;5.330;2022-10-29T01:08:12;16.90;99.90
19254;DHT22;9761;50.926;5.330;2022-10-29T01:10:50;16.90;99.90
19254;DHT22;9761;50.926;5.330;2022-10-29T01:13:40;16.80;99.90
19254;DHT22;9761;50.926;5.330;2022-10-29T01:16:17;16.80;99.90
19254;DHT22;9761;50.926;5.330;2022-10-29T01:18:48;16.60;99.90
19254;DHT22;9761;50.926;5.330;2022-10-29T01:21:39;16.60;99.90
19254;DHT22;9761;50.926;5.330;2022-10-29T01:24:25;16.50;99.90
19254;DHT22;9761;50.926;5.330;2022-10-29T01:30:06;16.70;99.90
19254;DHT22;9761;50.926;5.330;2022-10-29T01:32:49;16.80;99.90
19254;DHT22;9761;50.926;5.330;2022-10-29T01:35:24;16.60;99.90
19254;DHT22;9761;50.926;5.330;2022-10-29T01:38:04;16.50;99.90
19254;DHT22;9761;50.926;5.330;2022-10-29T01:40:40;16.50;99.90
19254;DHT22;9761;50.926;5.330;2022-10-29T01:43:14;16.50;99.90
19254;DHT22;9761;50.926;5.330;2022-10-29T01:45:47;16.50;99.90
19254;DHT22;9761;50.926;5.330;2022-10-29T01:48:23;16.60;99.90
19254;DHT22;9761;50.926;5.330;2022-10-29T01:50:56;16.70;99.90
19254;DHT22;9761;50.926;5.330;2022-10-29T01:53:29;16.70;99.90
19254;DHT22;9761;50.926;5.330;2022-10-29T01:56:02;16.70;99.90
19254;DHT22;9761;50.926;5.330;2022-10-29T01:58:30;16.70;99.90
19254;DHT22;9761;50.926;5.330;2022-10-29T02:01:05;16.80;99.90
19254;DHT22;9761;50.926;5.330;2022-10-29T02:03:44;16.80;99.90
19254;DHT22;9761;50.926;5.330;2022-10-29T02:06:23;16.60;99.90
19254;DHT22;9761;50.926;5.330;2022-10-29T02:09:00;16.60;99.90
19254;DHT22;9761;50.926;5.330;2022-10-29T02:11:33;16.50;99.90
19254;DHT22;9761;50.926;5.330;2022-10-29T02:14:06;16.60;99.90
19254;DHT22;9761;50.926;5.330;2022-10-29T02:16:35;16.50;99.90
19254;DHT22;9761;50.926;5.330;2022-10-29T02:19:05;16.60;99.90
19254;DHT22;9761;50.926;5.330;2022-10-29T02:21:32;16.60;99.90
19254;DHT22;9761;50.926;5.330;2022-10-29T02:23:59;16.60;99.90
19254;DHT22;9761;50.926;5.330;2022-10-29T02:26:26;16.60;99.90
19254;DHT22;9761;50.926;5.330;2022-10-29T02:28:54;16.60;99.90
19254;DHT22;9761;50.926;5.330;2022-10-29T02:31:22;16.50;99.90
19254;DHT22;9761;50.926;5.330;2022-10-29T02:33:50;16.50;99.90
19254;DHT22;9761;50.926;5.330;2022-10-29T02:36:20;16.50;99.90
19254;DHT22;9761;50.926;5.330;2022-10-29T02:38:48;16.40;99.90
19254;DHT22;9761;50.926;5.330;2022-10-29T02:41:14;16.40;99.90
19254;DHT22;9761;50.926;5.330;2022-10-29T02:43:42;16.30;99.90
19254;DHT22;9761;50.926;5.330;2022-10-29T02:46:14;16.30;99.90
19254;DHT22;9761;50.926;5.330;2022-10-29T02:48:41;16.20;99.90
19254;DHT22;9761;50.926;5.330;2022-10-29T02:51:08;16.30;99.90
19254;DHT22;9761;50.926;5.330;2022-10-29T02:53:37;16.40;99.90
19254;DHT22;9761;50.926;5.330;2022-10-29T02:56:05;16.30;99.90
19254;DHT22;9761;50.926;5.330;2022-10-29T02:58:33;16.20;99.90
19254;DHT22;9761;50.926;5.330;2022-10-29T03:01:02;16.10;99.90
19254;DHT22;9761;50.926;5.330;2022-10-29T03:03:30;16.00;99.90
19254;DHT22;9761;50.926;5.330;2022-10-29T03:05:57;15.90;99.90
19254;DHT22;9761;50.926;5.330;2022-10-29T03:08:25;16.00;99.90
19254;DHT22;9761;50.926;5.330;2022-10-29T03:10:58;15.90;99.90
19254;DHT22;9761;50.926;5.330;2022-10-29T03:13:25;16.00;99.90
19254;DHT22;9761;50.926;5.330;2022-10-29T03:15:52;16.00;99.90
19254;DHT22;9761;50.926;5.330;2022-10-29T03:18:19;16.00;99.90
19254;DHT22;9761;50.926;5.330;2022-10-29T03:20:47;16.10;99.90
19254;DHT22;9761;50.926;5.330;2022-10-29T03:23:14;16.10;99.90
19254;DHT22;9761;50.926;5.330;2022-10-29T03:25:41;16.20;99.90
19254;DHT22;9761;50.926;5.330;2022-10-29T03:28:10;16.10;99.90
19254;DHT22;9761;50.926;5.330;2022-10-29T03:30:37;16.00;99.90
19254;DHT22;9761;50.926;5.330;2022-10-29T03:33:04;16.00;99.90
19254;DHT22;9761;50.926;5.330;2022-10-29T03:35:33;16.00;99.90
19254;DHT22;9761;50.926;5.330;2022-10-29T03:38:00;16.10;99.90
19254;DHT22;9761;50.926;5.330;2022-10-29T03:40:27;16.10;99.90
19254;DHT22;9761;50.926;5.330;2022-10-29T03:42:54;16.20;99.90
19254;DHT22;9761;50.926;5.330;2022-10-29T03:45:23;16.40;99.90
19254;DHT22;9761;50.926;5.330;2022-10-29T03:47:51;16.50;99.90
19254;DHT22;9761;50.926;5.330;2022-10-29T03:50:18;16.50;99.90
19254;DHT22;9761;50.926;5.330;2022-10-29T03:52:46;16.40;99.90
19254;DHT22;9761;50.926;5.330;2022-10-29T03:55:14;16.30;99.90
19254;DHT22;9761;50.926;5.330;2022-10-29T03:57:42;16.50;99.90
19254;DHT22;9761;50.926;5.330;2022-10-29T04:00:10;16.60;99.90
19254;DHT22;9761;50.926;5.330;2022-10-29T04:02:38;16.50;99.90
19254;DHT22;9761;50.926;5.330;2022-10-29T04:05:07;16.40;99.90
19254;DHT22;9761;50.926;5.330;2022-10-29T04:07:34;16.30;99.90
19254;DHT22;9761;50.926;5.330;2022-10-29T04:10:04;16.40;99.90
19254;DHT22;9761;50.926;5.330;2022-10-29T04:12:33;16.50;99.90
19254;DHT22;9761;50.926;5.330;2022-10-29T04:15:00;16.60;99.90
19254;DHT22;9761;50.926;5.330;2022-10-29T04:17:27;16.60;99.90
19254;DHT22;9761;50.926;5.330;2022-10-29T04:19:56;16.50;99.90
19254;DHT22;9761;50.926;5.330;2022-10-29T04:22:23;16.30;99.90
19254;DHT22;9761;50.926;5.330;2022-10-29T04:24:49;16.40;99.90
19254;DHT22;9761;50.926;5.330;2022-10-29T04:27:17;16.30;99.90
19254;DHT22;9761;50.926;5.330;2022-10-29T04:29:43;16.30;99.90
19254;DHT22;9761;50.926;5.330;2022-10-29T04:32:10;16.30;99.90
19254;DHT22;9761;50.926;5.330;2022-10-29T04:34:37;16.40;99.90
19254;DHT22;9761;50.926;5.330;2022-10-29T04:37:06;16.50;99.90
19254;DHT22;9761;50.926;5.330;2022-10-29T04:39:33;16.50;99.90
19254;DHT22;9761;50.926;5.330;2022-10-29T04:42:00;16.60;99.90
19254;DHT22;9761;50.926;5.330;2022-10-29T04:44:27;16.60;99.90
19254;DHT22;9761;50.926;5.330;2022-10-29T04:46:55;16.60;99.90
19254;DHT22;9761;50.926;5.330;2022-10-29T04:49:23;16.60;99.90
19254;DHT22;9761;50.926;5.330;2022-10-29T04:51:49;16.60;99.90
19254;DHT22;9761;50.926;5.330;2022-10-29T04:54:22;16.60;99.90
19254;DHT22;9761;50.926;5.330;2022-10-29T04:56:50;16.60;99.90
19254;DHT22;9761;50.926;5.330;2022-10-29T04:59:16;16.50;99.90
19254;DHT22;9761;50.926;5.330;2022-10-29T05:01:44;16.50;99.90
19254;DHT22;9761;50.926;5.330;2022-10-29T05:04:11;16.60;99.90
19254;DHT22;9761;50.926;5.330;2022-10-29T05:06:40;16.60;99.90
19254;DHT22;9761;50.926;5.330;2022-10-29T05:09:07;16.60;99.90
19254;DHT22;9761;50.926;5.330;2022-10-29T05:11:36;16.50;99.90
19254;DHT22;9761;50.926;5.330;2022-10-29T05:14:03;16.50;99.90
19254;DHT22;9761;50.926;5.330;2022-10-29T05:16:30;16.50;99.90
19254;DHT22;9761;50.926;5.330;2022-10-29T05:18:58;16.40;99.90
19254;DHT22;9761;50.926;5.330;2022-10-29T05:21:25;16.40;99.90
19254;DHT22;9761;50.926;5.330;2022-10-29T05:23:52;16.40;99.90
19254;DHT22;9761;50.926;5.330;2022-10-29T05:26:29;16.50;99.90
19254;DHT22;9761;50.926;5.330;2022-10-29T05:28:58;16.50;99.90
19254;DHT22;9761;50.926;5.330;2022-10-29T05:31:28;16.60;99.90
19254;DHT22;9761;50.926;5.330;2022-10-29T05:33:56;16.70;99.90
19254;DHT22;9761;50.926;5.330;2022-10-29T05:36:23;16.70;99.90
19254;DHT22;9761;50.926;5.330;2022-10-29T05:38:50;16.60;99.90
19254;DHT22;9761;50.926;5.330;2022-10-29T05:41:17;16.50;99.90
19254;DHT22;9761;50.926;5.330;2022-10-29T05:44:04;16.50;99.90
19254;DHT22;9761;50.926;5.330;2022-10-29T05:46:33;16.60;99.90
19254;DHT22;9761;50.926;5.330;2022-10-29T05:49:01;16.60;99.90
19254;DHT22;9761;50.926;5.330;2022-10-29T05:51:28;16.60;99.90
19254;DHT22;9761;50.926;5.330;2022-10-29T05:53:56;16.60;99.90
19254;DHT22;9761;50.926;5.330;2022-10-29T05:56:28;16.60;99.90
19254;DHT22;9761;50.926;5.330;2022-10-29T05:58:56;16.60;99.90
19254;DHT22;9761;50.926;5.330;2022-10-29T06:01:25;16.60;99.90
19254;DHT22;9761;50.926;5.330;2022-10-29T06:03:54;16.50;99.90
19254;DHT22;9761;50.926;5.330;2022-10-29T06:06:21;16.40;99.90
19254;DHT22;9761;50.926;5.330;2022-10-29T06:08:50;16.30;99.90
19254;DHT22;9761;50.926;5.330;2022-10-29T06:11:18;16.20;99.90
19254;DHT22;9761;50.926;5.330;2022-10-29T06:13:45;16.20;99.90
19254;DHT22;9761;50.926;5.330;2022-10-29T06:16:12;16.00;99.90
19254;DHT22;9761;50.926;5.330;2022-10-29T06:18:39;16.10;99.90
19254;DHT22;9761;50.926;5.330;2022-10-29T06:21:07;16.10;99.90
19254;DHT22;9761;50.926;5.330;2022-10-29T06:23:35;16.10;99.90
19254;DHT22;9761;50.926;5.330;2022-10-29T06:26:02;16.10;99.90
19254;DHT22;9761;50.926;5.330;2022-10-29T06:28:31;16.00;99.90
19254;DHT22;9761;50.926;5.330;2022-10-29T06:30:59;15.90;99.90
19254;DHT22;9761;50.926;5.330;2022-10-29T06:33:26;16.00;99.90
19254;DHT22;9761;50.926;5.330;2022-10-29T06:35:57;16.10;99.90
19254;DHT22;9761;50.926;5.330;2022-10-29T06:38:25;16.10;99.90
19254;DHT22;9761;50.926;5.330;2022-10-29T06:40:53;16.10;99.90
19254;DHT22;9761;50.926;5.330;2022-10-29T06:43:20;16.10;99.90
19254;DHT22;9761;50.926;5.330;2022-10-29T06:45:48;16.00;99.90
19254;DHT22;9761;50.926;5.330;2022-10-29T06:48:16;16.00;99.90
19254;DHT22;9761;50.926;5.330;2022-10-29T06:50:45;16.00;99.90
19254;DHT22;9761;50.926;5.330;2022-10-29T06:53:14;16.00;99.90
19254;DHT22;9761;50.926;5.330;2022-10-29T06:55:44;16.00;99.90
19254;DHT22;9761;50.926;5.330;2022-10-29T06:58:14;16.00;99.90
19254;DHT22;9761;50.926;5.330;2022-10-29T07:00:44;16.20;99.90
19254;DHT22;9761;50.926;5.330;2022-10-29T07:03:15;16.10;99.90
19254;DHT22;9761;50.926;5.330;2022-10-29T07:05:42;16.20;99.90
19254;DHT22;9761;50.926;5.330;2022-10-29T07:08:09;16.40;99.90
19254;DHT22;9761;50.926;5.330;2022-10-29T07:10:39;16.60;99.90
19254;DHT22;9761;50.926;5.330;2022-10-29T07:13:10;16.70;99.90
19254;DHT22;9761;50.926;5.330;2022-10-29T07:15:37;16.70;99.90
19254;DHT22;9761;50.926;5.330;2022-10-29T07:18:05;16.80;99.90
19254;DHT22;9761;50.926;5.330;2022-10-29T07:20:34;16.80;99.90
19254;DHT22;9761;50.926;5.330;2022-10-29T07:23:03;16.80;99.90
19254;DHT22;9761;50.926;5.330;2022-10-29T07:25:33;16.70;99.90
19254;DHT22;9761;50.926;5.330;2022-10-29T07:28:04;16.80;99.90
19254;DHT22;9761;50.926;5.330;2022-10-29T07:30:34;16.80;99.90
19254;DHT22;9761;50.926;5.330;2022-10-29T07:33:01;16.80;99.90
19254;DHT22;9761;50.926;5.330;2022-10-29T07:35:28;16.70;99.90
19254;DHT22;9761;50.926;5.330;2022-10-29T07:37:57;16.70;99.90
19254;DHT22;9761;50.926;5.330;2022-10-29T07:40:24;16.70;99.90
19254;DHT22;9761;50.926;5.330;2022-10-29T07:42:51;16.70;99.90
19254;DHT22;9761;50.926;5.330;2022-10-29T07:45:19;16.70;99.90
19254;DHT22;9761;50.926;5.330;2022-10-29T07:47:47;16.70;99.90
19254;DHT22;9761;50.926;5.330;2022-10-29T07:50:14;16.80;99.90
19254;DHT22;9761;50.926;5.330;2022-10-29T07:52:41;16.90;99.90
19254;DHT22;9761;50.926;5.330;2022-10-29T07:55:08;17.00;99.90
19254;DHT22;9761;50.926;5.330;2022-10-29T07:57:38;17.00;99.90
19254;DHT22;9761;50.926;5.330;2022-10-29T08:00:06;17.00;99.90
19254;DHT22;9761;50.926;5.330;2022-10-29T08:02:34;17.00;99.90
19254;DHT22;9761;50.926;5.330;2022-10-29T08:05:04;17.00;99.90
19254;DHT22;9761;50.926;5.330;2022-10-29T08:07:31;17.00;99.90
19254;DHT22;9761;50.926;5.330;2022-10-29T08:09:58;17.20;99.90
19254;DHT22;9761;50.926;5.330;2022-10-29T08:12:25;17.30;99.90
19254;DHT22;9761;50.926;5.330;2022-10-29T08:14:53;17.50;99.90
19254;DHT22;9761;50.926;5.330;2022-10-29T08:17:22;17.60;99.90
19254;DHT22;9761;50.926;5.330;2022-10-29T08:19:49;17.70;99.90
19254;DHT22;9761;50.926;5.330;2022-10-29T08:22:17;17.70;99.90
19254;DHT22;9761;50.926;5.330;2022-10-29T08:24:44;17.90;99.90
19254;DHT22;9761;50.926;5.330;2022-10-29T08:27:11;18.10;99.90
19254;DHT22;9761;50.926;5.330;2022-10-29T08:29:38;18.40;99.90
19254;DHT22;9761;50.926;5.330;2022-10-29T08:32:05;18.60;99.90
19254;DHT22;9761;50.926;5.330;2022-10-29T08:34:32;18.60;99.90
19254;DHT22;9761;50.926;5.330;2022-10-29T08:36:59;18.70;99.90
19254;DHT22;9761;50.926;5.330;2022-10-29T08:39:27;18.90;99.90
19254;DHT22;9761;50.926;5.330;2022-10-29T08:42:06;18.90;99.90
19254;DHT22;9761;50.926;5.330;2022-10-29T08:45:03;18.90;99.90
19254;DHT22;9761;50.926;5.330;2022-10-29T08:47:44;18.80;99.90
19254;DHT22;9761;50.926;5.330;2022-10-29T08:50:18;18.80;99.90
19254;DHT22;9761;50.926;5.330;2022-10-29T08:52:46;18.90;99.90
19254;DHT22;9761;50.926;5.330;2022-10-29T08:55:17;18.80;99.90
19254;DHT22;9761;50.926;5.330;2022-10-29T08:57:49;18.90;99.90
19254;DHT22;9761;50.926;5.330;2022-10-29T09:00:20;18.80;99.90
19254;DHT22;9761;50.926;5.330;2022-10-29T09:02:57;18.70;99.90
19254;DHT22;9761;50.926;5.330;2022-10-29T09:05:29;18.70;99.90
19254;DHT22;9761;50.926;5.330;2022-10-29T09:08:05;18.80;99.90
19254;DHT22;9761;50.926;5.330;2022-10-29T09:10:42;19.10;99.90
19254;DHT22;9761;50.926;5.330;2022-10-29T09:13:28;19.20;99.90
19254;DHT22;9761;50.926;5.330;2022-10-29T09:16:16;19.30;99.90
19254;DHT22;9761;50.926;5.330;2022-10-29T09:19:00;19.50;99.90
19254;DHT22;9761;50.926;5.330;2022-10-29T09:21:34;19.60;99.90
19254;DHT22;9761;50.926;5.330;2022-10-29T09:24:11;19.70;99.90
19254;DHT22;9761;50.926;5.330;2022-10-29T09:26:52;19.80;99.90
19254;DHT22;9761;50.926;5.330;2022-10-29T09:29:34;19.60;99.90
19254;DHT22;9761;50.926;5.330;2022-10-29T09:32:10;19.70;99.90
19254;DHT22;9761;50.926;5.330;2022-10-29T09:34:42;19.70;99.90
19254;DHT22;9761;50.926;5.330;2022-10-29T09:37:14;19.80;99.90
19254;DHT22;9761;50.926;5.330;2022-10-29T09:39:43;19.90;99.90
19254;DHT22;9761;50.926;5.330;2022-10-29T09:42:17;19.90;99.90
19254;DHT22;9761;50.926;5.330;2022-10-29T09:44:52;19.90;99.90
19254;DHT22;9761;50.926;5.330;2022-10-29T09:47:32;20.00;99.90
19254;DHT22;9761;50.926;5.330;2022-10-29T09:50:09;20.10;99.90
19254;DHT22;9761;50.926;5.330;2022-10-29T09:52:41;20.30;99.90
19254;DHT22;9761;50.926;5.330;2022-10-29T09:55:17;20.60;99.90
19254;DHT22;9761;50.926;5.330;2022-10-29T09:57:49;20.80;99.90
19254;DHT22;9761;50.926;5.330;2022-10-29T10:00:21;20.80;99.90
19254;DHT22;9761;50.926;5.330;2022-10-29T10:02:51;20.70;99.90
19254;DHT22;9761;50.926;5.330;2022-10-29T10:05:25;20.60;99.90
19254;DHT22;9761;50.926;5.330;2022-10-29T10:08:08;20.50;99.90
19254;DHT22;9761;50.926;5.330;2022-10-29T10:10:49;20.60;99.90
19254;DHT22;9761;50.926;5.330;2022-10-29T10:13:19;20.50;99.90
19254;DHT22;9761;50.926;5.330;2022-10-29T10:15:50;20.60;99.90
19254;DHT22;9761;50.926;5.330;2022-10-29T10:18:20;20.80;99.90
19254;DHT22;9761;50.926;5.330;2022-10-29T10:20:58;20.90;99.90
19254;DHT22;9761;50.926;5.330;2022-10-29T10:23:28;20.90;99.90
19254;DHT22;9761;50.926;5.330;2022-10-29T10:25:58;21.10;99.90
19254;DHT22;9761;50.926;5.330;2022-10-29T10:28:29;21.10;99.90
19254;DHT22;9761;50.926;5.330;2022-10-29T10:31:11;21.30;99.90
19254;DHT22;9761;50.926;5.330;2022-10-29T10:33:47;21.50;99.90
19254;DHT22;9761;50.926;5.330;2022-10-29T10:36:20;21.50;99.90
19254;DHT22;9761;50.926;5.330;2022-10-29T10:38:51;21.40;99.90
19254;DHT22;9761;50.926;5.330;2022-10-29T10:41:24;21.40;99.90
19254;DHT22;9761;50.926;5.330;2022-10-29T10:43:54;21.50;99.90
19254;DHT22;9761;50.926;5.330;2022-10-29T10:46:26;21.60;99.90
19254;DHT22;9761;50.926;5.330;2022-10-29T10:48:57;21.70;99.90
19254;DHT22;9761;50.926;5.330;2022-10-29T10:51:27;21.60;99.90
19254;DHT22;9761;50.926;5.330;2022-10-29T10:53:57;21.70;99.90
19254;DHT22;9761;50.926;5.330;2022-10-29T10:56:24;21.90;99.90
19254;DHT22;9761;50.926;5.330;2022-10-29T10:59:05;21.70;99.90
19254;DHT22;9761;50.926;5.330;2022-10-29T11:01:37;21.80;99.90
19254;DHT22;9761;50.926;5.330;2022-10-29T11:04:12;22.00;99.90
19254;DHT22;9761;50.926;5.330;2022-10-29T11:06:42;22.00;99.90
19254;DHT22;9761;50.926;5.330;2022-10-29T11:09:18;22.00;99.90
19254;DHT22;9761;50.926;5.330;2022-10-29T11:11:49;22.10;99.90
19254;DHT22;9761;50.926;5.330;2022-10-29T11:14:26;22.30;99.90
19254;DHT22;9761;50.926;5.330;2022-10-29T11:16:58;22.30;99.90
19254;DHT22;9761;50.926;5.330;2022-10-29T11:19:31;22.50;99.90
19254;DHT22;9761;50.926;5.330;2022-10-29T11:22:08;22.70;99.90
19254;DHT22;9761;50.926;5.330;2022-10-29T11:24:46;22.70;99.90
19254;DHT22;9761;50.926;5.330;2022-10-29T11:27:35;22.60;99.90
19254;DHT22;9761;50.926;5.330;2022-10-29T11:30:11;22.60;99.90
19254;DHT22;9761;50.926;5.330;2022-10-29T11:32:49;22.70;99.90
19254;DHT22;9761;50.926;5.330;2022-10-29T11:35:27;22.70;99.90
19254;DHT22;9761;50.926;5.330;2022-10-29T11:38:00;22.90;99.90
19254;DHT22;9761;50.926;5.330;2022-10-29T11:40:35;23.00;99.90
19254;DHT22;9761;50.926;5.330;2022-10-29T11:43:09;22.90;99.90
19254;DHT22;9761;50.926;5.330;2022-10-29T11:45:56;23.00;99.90
19254;DHT22;9761;50.926;5.330;2022-10-29T11:48:34;22.90;99.90
19254;DHT22;9761;50.926;5.330;2022-10-29T11:51:14;23.00;99.90
19254;DHT22;9761;50.926;5.330;2022-10-29T11:53:55;22.90;99.90
19254;DHT22;9761;50.926;5.330;2022-10-29T11:56:36;23.00;99.90
19254;DHT22;9761;50.926;5.330;2022-10-29T11:59:15;23.00;99.90
19254;DHT22;9761;50.926;5.330;2022-10-29T12:01:55;23.10;99.90
19254;DHT22;9761;50.926;5.330;2022-10-29T12:04:30;23.10;99.90
19254;DHT22;9761;50.926;5.330;2022-10-29T12:07:13;23.20;99.90
19254;DHT22;9761;50.926;5.330;2022-10-29T12:10:08;23.30;99.90
19254;DHT22;9761;50.926;5.330;2022-10-29T12:12:41;23.50;99.90
19254;DHT22;9761;50.926;5.330;2022-10-29T12:15:19;23.60;99.90
19254;DHT22;9761;50.926;5.330;2022-10-29T12:17:56;23.60;99.90
19254;DHT22;9761;50.926;5.330;2022-10-29T12:20:32;23.70;99.90
19254;DHT22;9761;50.926;5.330;2022-10-29T12:23:12;23.60;99.90
19254;DHT22;9761;50.926;5.330;2022-10-29T12:25:53;23.70;99.90
19254;DHT22;9761;50.926;5.330;2022-10-29T12:28:26;23.50;99.90
19254;DHT22;9761;50.926;5.330;2022-10-29T12:31:07;23.40;99.90
19254;DHT22;9761;50.926;5.330;2022-10-29T12:33:47;23.20;99.90
19254;DHT22;9761;50.926;5.330;2022-10-29T12:36:21;23.00;99.90
19254;DHT22;9761;50.926;5.330;2022-10-29T12:38:55;23.10;99.90
19254;DHT22;9761;50.926;5.330;2022-10-29T12:41:28;23.10;99.90
19254;DHT22;9761;50.926;5.330;2022-10-29T12:44:01;23.10;99.90
19254;DHT22;9761;50.926;5.330;2022-10-29T12:46:37;23.00;99.90
19254;DHT22;9761;50.926;5.330;2022-10-29T12:49:10;23.10;99.90
19254;DHT22;9761;50.926;5.330;2022-10-29T12:51:47;23.20;99.90
19254;DHT22;9761;50.926;5.330;2022-10-29T12:54:23;23.00;99.90
19254;DHT22;9761;50.926;5.330;2022-10-29T12:56:53;22.90;99.90
19254;DHT22;9761;50.926;5.330;2022-10-29T12:59:36;22.90;99.90
19254;DHT22;9761;50.926;5.330;2022-10-29T13:02:25;22.70;99.90
19254;DHT22;9761;50.926;5.330;2022-10-29T13:05:18;22.60;99.90
19254;DHT22;9761;50.926;5.330;2022-10-29T13:08:26;22.60;99.90
19254;DHT22;9761;50.926;5.330;2022-10-29T13:10:56;22.80;99.90
19254;DHT22;9761;50.926;5.330;2022-10-29T13:13:48;22.90;99.90
19254;DHT22;9761;50.926;5.330;2022-10-29T13:16:19;23.00;99.90
19254;DHT22;9761;50.926;5.330;2022-10-29T13:19:08;23.10;99.90
19254;DHT22;9761;50.926;5.330;2022-10-29T13:22:00;23.10;99.90
19254;DHT22;9761;50.926;5.330;2022-10-29T13:24:28;23.40;99.90
19254;DHT22;9761;50.926;5.330;2022-10-29T13:27:04;23.50;99.90
19254;DHT22;9761;50.926;5.330;2022-10-29T13:29:42;23.50;99.90
19254;DHT22;9761;50.926;5.330;2022-10-29T13:32:28;23.50;99.90
19254;DHT22;9761;50.926;5.330;2022-10-29T13:34:56;23.50;99.90
19254;DHT22;9761;50.926;5.330;2022-10-29T13:41:12;23.60;99.90
19254;DHT22;9761;50.926;5.330;2022-10-29T13:43:41;23.60;99.90
19254;DHT22;9761;50.926;5.330;2022-10-29T13:46:35;23.80;99.90
19254;DHT22;9761;50.926;5.330;2022-10-29T13:49:10;23.50;99.90
19254;DHT22;9761;50.926;5.330;2022-10-29T13:51:54;23.40;99.90
19254;DHT22;9761;50.926;5.330;2022-10-29T13:54:29;23.50;99.90
19254;DHT22;9761;50.926;5.330;2022-10-29T13:56:59;23.40;99.90
19254;DHT22;9761;50.926;5.330;2022-10-29T13:59:37;23.50;99.90
19254;DHT22;9761;50.926;5.330;2022-10-29T14:02:19;23.40;99.90
19254;DHT22;9761;50.926;5.330;2022-10-29T14:04:49;23.40;99.90
19254;DHT22;9761;50.926;5.330;2022-10-29T14:07:22;23.40;99.90
19254;DHT22;9761;50.926;5.330;2022-10-29T14:09:54;23.40;99.90
19254;DHT22;9761;50.926;5.330;2022-10-29T14:12:26;23.30;99.90
19254;DHT22;9761;50.926;5.330;2022-10-29T14:15:01;23.30;99.90
19254;DHT22;9761;50.926;5.330;2022-10-29T14:17:28;23.40;99.90
19254;DHT22;9761;50.926;5.330;2022-10-29T14:19:55;23.40;99.90
19254;DHT22;9761;50.926;5.330;2022-10-29T14:22:32;23.40;99.90
19254;DHT22;9761;50.926;5.330;2022-10-29T14:25:01;23.50;99.90
19254;DHT22;9761;50.926;5.330;2022-10-29T14:27:30;23.70;99.90
19254;DHT22;9761;50.926;5.330;2022-10-29T14:30:12;23.80;99.90
19254;DHT22;9761;50.926;5.330;2022-10-29T14:32:41;23.80;99.90
19254;DHT22;9761;50.926;5.330;2022-10-29T14:35:13;23.70;99.90
19254;DHT22;9761;50.926;5.330;2022-10-29T14:37:42;23.60;99.90
19254;DHT22;9761;50.926;5.330;2022-10-29T14:40:17;23.40;99.90
19254;DHT22;9761;50.926;5.330;2022-10-29T14:42:50;23.40;99.90
19254;DHT22;9761;50.926;5.330;2022-10-29T14:45:20;23.40;99.90
19254;DHT22;9761;50.926;5.330;2022-10-29T14:47:52;23.30;99.90
19254;DHT22;9761;50.926;5.330;2022-10-29T14:50:24;23.10;99.90
19254;DHT22;9761;50.926;5.330;2022-10-29T14:52:52;22.90;99.90
19254;DHT22;9761;50.926;5.330;2022-10-29T14:55:22;22.70;99.90
19254;DHT22;9761;50.926;5.330;2022-10-29T14:57:59;22.80;99.90
19254;DHT22;9761;50.926;5.330;2022-10-29T15:00:28;22.70;99.90
19254;DHT22;9761;50.926;5.330;2022-10-29T15:02:57;22.60;99.90
19254;DHT22;9761;50.926;5.330;2022-10-29T15:05:26;22.60;99.90
19254;DHT22;9761;50.926;5.330;2022-10-29T15:08:12;22.60;99.90
19254;DHT22;9761;50.926;5.330;2022-10-29T15:10:45;22.60;99.90
19254;DHT22;9761;50.926;5.330;2022-10-29T15:13:29;22.50;99.90
19254;DHT22;9761;50.926;5.330;2022-10-29T15:16:01;22.40;99.90
19254;DHT22;9761;50.926;5.330;2022-10-29T15:18:34;22.30;99.90
19254;DHT22;9761;50.926;5.330;2022-10-29T15:21:03;22.20;99.90
19254;DHT22;9761;50.926;5.330;2022-10-29T15:23:33;22.40;99.90
19254;DHT22;9761;50.926;5.330;2022-10-29T15:26:04;22.40;99.90
19254;DHT22;9761;50.926;5.330;2022-10-29T15:28:38;22.20;99.90
19254;DHT22;9761;50.926;5.330;2022-10-29T15:31:06;22.10;99.90
19254;DHT22;9761;50.926;5.330;2022-10-29T15:33:41;21.90;99.90
19254;DHT22;9761;50.926;5.330;2022-10-29T15:36:08;21.90;99.90
19254;DHT22;9761;50.926;5.330;2022-10-29T15:39:07;22.00;99.90
19254;DHT22;9761;50.926;5.330;2022-10-29T15:41:38;21.90;99.90
19254;DHT22;9761;50.926;5.330;2022-10-29T15:44:29;21.70;99.90
19254;DHT22;9761;50.926;5.330;2022-10-29T15:46:59;21.60;99.90
19254;DHT22;9761;50.926;5.330;2022-10-29T15:49:27;21.50;99.90
19254;DHT22;9761;50.926;5.330;2022-10-29T15:51:56;21.50;99.90
19254;DHT22;9761;50.926;5.330;2022-10-29T15:54:27;21.60;99.90
19254;DHT22;9761;50.926;5.330;2022-10-29T15:56:56;21.60;99.90
19254;DHT22;9761;50.926;5.330;2022-10-29T15:59:25;21.50;99.90
19254;DHT22;9761;50.926;5.330;2022-10-29T16:01:52;21.50;99.90
19254;DHT22;9761;50.926;5.330;2022-10-29T16:04:20;21.30;99.90
19254;DHT22;9761;50.926;5.330;2022-10-29T16:06:49;21.30;99.90
19254;DHT22;9761;50.926;5.330;2022-10-29T16:09:18;21.20;99.90
19254;DHT22;9761;50.926;5.330;2022-10-29T16:11:46;21.10;99.90
19254;DHT22;9761;50.926;5.330;2022-10-29T16:14:17;21.10;99.90
19254;DHT22;9761;50.926;5.330;2022-10-29T16:16:45;21.10;99.90
19254;DHT22;9761;50.926;5.330;2022-10-29T16:19:13;21.00;99.90
19254;DHT22;9761;50.926;5.330;2022-10-29T16:21:40;20.80;99.90